Hagarstown, Illinois
Current Conditions -  °F | °C
As of 4:55 PM on Tuesday 27 Jan 2015 (Local Time) from KSLO Reporting Station
Overcast Overcast  
Wind Chill: 31°   Ceiling: 2800
Heat Index: 38°   Visibility: 10mi
Dew Point: 30°   Wind: 9mph
Humidity: 75%   Direction: 10°N
Pressure: 30.22"   Gusts: NA
Location:  38.94°N, 89.17°W
Report Text: KSLO 272255Z AUTO 01008KT 10SM SCT021 OVC028 03/M01 A3022 RMK AO2 T00311009
Loading
Personal Weather Stations






























Interactive Weather Map New forecast layout! Learn more

10-Day Weather Forecast

Advertisements
Track Severe Weather on mobile